Time,TemperatureF,DewpointF,PressureIn,WindDirection,WindDirectionDegrees,WindSpeedMPH,WindSpeedGustMPH,Humidity,HourlyPrecipIn,Conditions,Clouds,dailyrainin,SolarRadiationWatts/m^2,SoftwareType,DateUTC
2013-10-08 00:00:00,40.0,38.1,30.02,West,263,0.0,0.0,93,0.00,,OVC,0.01,0.00,VWS V15.00,2013-10-08 05:00:00,
2013-10-08 00:04:00,39.8,38.0,30.02,West,263,0.0,0.0,93,0.00,,SKC,0.00,0.00,VWS V14.01,2013-10-08 05:04:00,
2013-10-08 00:05:00,39.8,37.9,30.02,West,263,0.0,0.0,93,0.00,,OVC,0.00,0.00,VWS V15.00,2013-10-08 05:05:00,
2013-10-08 00:09:00,39.8,38.0,30.02,West,263,0.0,0.0,93,0.00,,SKC,0.00,0.00,VWS V14.01,2013-10-08 05:09:00,
2013-10-08 00:10:00,39.7,37.8,30.02,West,263,0.0,0.0,93,0.00,,OVC,0.00,0.00,VWS V15.00,2013-10-08 05:10:00,
2013-10-08 00:14:00,39.6,37.8,30.02,West,263,0.0,0.0,93,0.00,,SKC,0.00,0.00,VWS V14.01,2013-10-08 05:14:00,
2013-10-08 00:15:00,39.5,37.7,30.02,West,263,0.0,0.0,93,0.00,,OVC,0.00,0.00,VWS V15.00,2013-10-08 05:15:00,
2013-10-08 00:19:00,39.5,37.7,30.02,West,263,0.0,0.0,93,0.00,,SKC,0.00,0.00,VWS V14.01,2013-10-08 05:19:00,
2013-10-08 00:20:00,39.4,37.5,30.02,West,263,0.0,0.0,93,0.00,,OVC,0.00,0.00,VWS V15.00,2013-10-08 05:20:00,
2013-10-08 00:24:00,39.3,37.5,30.02,West,263,0.0,0.0,93,0.00,,SKC,0.00,0.00,VWS V14.01,2013-10-08 05:24:00,
2013-10-08 00:25:00,39.5,37.7,30.02,West,263,0.0,0.0,93,0.00,,OVC,0.00,0.00,VWS V15.00,2013-10-08 05:25:00,
2013-10-08 00:29:00,39.6,37.8,30.02,West,263,0.0,0.0,93,0.00,,SKC,0.00,0.00,VWS V14.01,2013-10-08 05:29:00,
2013-10-08 00:30:00,39.6,37.8,30.02,West,263,0.0,0.0,93,0.00,,OVC,0.00,0.00,VWS V15.00,2013-10-08 05:30:00,
2013-10-08 00:34:00,39.4,37.5,30.02,West,263,1.0,1.0,93,0.00,,SKC,0.00,0.00,VWS V14.01,2013-10-08 05:34:00,
2013-10-08 00:35:00,39.4,37.5,30.02,West,263,0.0,2.0,93,0.00,,OVC,0.00,0.00,VWS V15.00,2013-10-08 05:35:00,
2013-10-08 00:39:00,39.3,37.5,30.02,West,263,0.0,0.0,93,0.00,,SKC,0.00,0.00,VWS V14.01,2013-10-08 05:39:00,
2013-10-08 00:40:00,39.3,37.5,30.02,West,263,0.0,0.0,93,0.00,,OVC,0.00,0.00,VWS V15.00,2013-10-08 05:40:00,
2013-10-08 00:44:00,38.9,37.0,30.02,West,263,0.0,0.0,93,0.00,,SKC,0.00,0.00,VWS V14.01,2013-10-08 05:44:00,
2013-10-08 00:45:00,39.0,37.2,30.02,West,263,0.0,0.0,93,0.00,,OVC,0.00,0.00,VWS V15.00,2013-10-08 05:45:00,
2013-10-08 00:49:00,38.7,36.6,30.02,West,263,0.0,0.0,92,0.00,,SKC,0.00,0.00,VWS V14.01,2013-10-08 05:49:00,
2013-10-08 00:50:00,38.6,36.8,30.02,West,263,0.0,0.0,93,0.00,,OVC,0.00,0.00,VWS V15.00,2013-10-08 05:50:00,
2013-10-08 00:54:00,38.8,37.0,30.02,West,263,0.0,0.0,93,0.00,,SKC,0.00,0.00,VWS V14.01,2013-10-08 05:54:00,
2013-10-08 00:55:00,38.9,37.0,30.02,West,263,0.0,0.0,93,0.00,,OVC,0.00,0.00,VWS V15.00,2013-10-08 05:55:00,
2013-10-08 00:59:00,38.6,36.8,30.02,West,263,0.0,0.0,93,0.00,,SKC,0.00,0.00,VWS V14.01,2013-10-08 05:59:00,
2013-10-08 01:00:00,38.5,36.7,30.02,West,263,0.0,0.0,93,0.00,,OVC,0.00,0.00,VWS V15.00,2013-10-08 06:00:00,
2013-10-08 01:05:00,38.4,36.6,30.02,West,263,0.0,2.0,93,0.00,,SKC,0.00,0.00,VWS V14.01,2013-10-08 06:05:00,
2013-10-08 01:10:00,38.7,36.8,30.02,West,263,0.0,0.0,93,0.00,,SKC,0.00,0.00,VWS V14.01,2013-10-08 06:10:00,
2013-10-08 01:15:00,39.3,37.5,30.03,West,263,0.0,0.0,93,0.00,,SKC,0.00,0.00,VWS V14.01,2013-10-08 06:15:00,
2013-10-08 01:20:00,39.7,37.8,30.03,West,264,0.0,0.0,93,0.00,,SKC,0.00,0.00,VWS V14.01,2013-10-08 06:20:00,
2013-10-08 01:25:00,39.5,37.7,30.02,West,263,0.0,0.0,93,0.00,,SKC,0.00,0.00,VWS V14.01,2013-10-08 06:25:00,
2013-10-08 01:30:00,39.4,37.5,30.03,West,263,0.0,0.0,93,0.00,,SKC,0.00,0.00,VWS V14.01,2013-10-08 06:30:00,
2013-10-08 01:35:00,39.5,37.7,30.03,West,263,0.0,0.0,93,0.00,,SKC,0.00,0.00,VWS V14.01,2013-10-08 06:35:00,
2013-10-08 01:40:00,39.2,37.3,30.03,West,263,0.0,0.0,93,0.00,,SKC,0.00,0.00,VWS V14.01,2013-10-08 06:40:00,
2013-10-08 01:45:00,39.2,37.3,30.03,West,263,0.0,0.0,93,0.00,,SKC,0.00,0.00,VWS V14.01,2013-10-08 06:45:00,
2013-10-08 01:50:00,39.2,37.3,30.03,West,263,0.0,0.0,93,0.00,,SKC,0.00,0.00,VWS V14.01,2013-10-08 06:50:00,
2013-10-08 01:55:00,39.4,37.5,30.03,West,263,0.0,0.0,93,0.00,,OVC,0.00,0.00,VWS V15.00,2013-10-08 06:55:00,
2013-10-08 01:56:00,39.3,37.5,30.03,West,263,0.0,0.0,93,0.00,,SKC,0.00,0.00,VWS V14.01,2013-10-08 06:56:00,
2013-10-08 02:00:00,39.5,37.7,30.04,West,263,0.0,2.0,93,0.00,,OVC,0.00,0.00,VWS V15.00,2013-10-08 07:00:00,
2013-10-08 02:01:00,39.5,37.7,30.04,West,263,1.0,1.0,93,0.00,,SKC,0.00,0.00,VWS V14.01,2013-10-08 07:01:00,
2013-10-08 02:05:00,39.8,37.9,30.04,West,263,0.0,2.0,93,0.00,,OVC,0.00,0.00,VWS V15.00,2013-10-08 07:05:00,
2013-10-08 02:06:00,39.7,37.8,30.04,West,263,0.0,2.0,93,0.00,,SKC,0.00,0.00,VWS V14.01,2013-10-08 07:06:00,
2013-10-08 02:10:00,40.2,38.1,30.04,West,263,0.0,0.0,92,0.00,,OVC,0.00,0.00,VWS V15.00,2013-10-08 07:10:00,
2013-10-08 02:11:00,40.2,38.3,30.04,West,263,0.0,0.0,93,0.00,,SKC,0.00,0.00,VWS V14.01,2013-10-08 07:11:00,
2013-10-08 02:15:00,40.0,37.9,30.03,West,263,0.0,2.0,92,0.00,,OVC,0.00,0.00,VWS V15.00,2013-10-08 07:15:00,
2013-10-08 02:16:00,40.1,38.0,30.03,West,263,0.0,2.0,92,0.00,,SKC,0.00,0.00,VWS V14.01,2013-10-08 07:16:00,
2013-10-08 02:20:00,39.9,37.8,30.03,West,263,0.0,0.0,92,0.00,,OVC,0.00,0.00,VWS V15.00,2013-10-08 07:20:00,
2013-10-08 02:21:00,39.8,37.7,30.03,West,263,0.0,0.0,92,0.00,,SKC,0.00,0.00,VWS V14.01,2013-10-08 07:21:00,
2013-10-08 02:25:00,40.1,38.0,30.03,West,263,0.0,0.0,92,0.00,,OVC,0.00,0.00,VWS V15.00,2013-10-08 07:25:00,
2013-10-08 02:26:00,40.1,38.0,30.03,West,263,0.0,0.0,92,0.00,,SKC,0.00,0.00,VWS V14.01,2013-10-08 07:26:00,
2013-10-08 02:30:00,39.8,37.7,30.03,West,263,0.0,0.0,92,0.00,,OVC,0.00,0.00,VWS V15.00,2013-10-08 07:30:00,
2013-10-08 02:31:00,39.8,37.7,30.03,West,263,0.0,0.0,92,0.00,,SKC,0.00,0.00,VWS V14.01,2013-10-08 07:31:00,
2013-10-08 02:35:00,40.0,37.9,30.03,West,263,0.0,1.0,92,0.00,,OVC,0.00,0.00,VWS V15.00,2013-10-08 07:35:00,
2013-10-08 02:36:00,40.0,37.9,30.03,West,263,0.0,0.0,92,0.00,,SKC,0.00,0.00,VWS V14.01,2013-10-08 07:36:00,
2013-10-08 02:40:00,40.2,38.1,30.03,SSW,192,1.0,5.0,92,0.00,,OVC,0.00,0.00,VWS V15.00,2013-10-08 07:40:00,
2013-10-08 02:41:00,40.1,38.0,30.03,SSW,192,0.0,5.0,92,0.00,,SKC,0.00,0.00,VWS V14.01,2013-10-08 07:41:00,
2013-10-08 02:45:00,40.5,38.4,30.03,SSW,192,0.0,2.0,92,0.00,,OVC,0.00,0.00,VWS V15.00,2013-10-08 07:45:00,
2013-10-08 02:46:00,40.5,38.4,30.03,SSW,192,0.0,2.0,92,0.00,,SKC,0.00,0.00,VWS V14.01,2013-10-08 07:46:00,
2013-10-08 02:50:00,40.5,38.1,30.03,SSW,192,0.0,3.0,91,0.00,,OVC,0.00,0.00,VWS V15.00,2013-10-08 07:50:00,
2013-10-08 02:51:00,40.5,38.1,30.03,SSW,192,2.0,3.0,91,0.00,,SKC,0.00,0.00,VWS V14.01,2013-10-08 07:51:00,
2013-10-08 02:55:00,40.5,38.1,30.03,SSW,192,0.0,3.0,91,0.00,,OVC,0.00,0.00,VWS V15.00,2013-10-08 07:55:00,
2013-10-08 02:56:00,40.5,38.1,30.03,South,191,0.0,3.0,91,0.00,,SKC,0.00,0.00,VWS V14.01,2013-10-08 07:56:00,
2013-10-08 03:00:00,40.8,38.4,30.03,South,191,0.0,3.0,91,0.00,,OVC,0.00,0.00,VWS V15.00,2013-10-08 08:00:00,
2013-10-08 03:01:00,40.7,38.3,30.03,South,191,0.0,3.0,91,0.00,,SKC,0.00,0.00,VWS V14.01,2013-10-08 08:01:00,
2013-10-08 03:05:00,40.9,38.5,30.03,South,191,0.0,2.0,91,0.00,,OVC,0.00,0.00,VWS V15.00,2013-10-08 08:05:00,
2013-10-08 03:06:00,40.9,38.5,30.03,South,191,0.0,2.0,91,0.00,,SKC,0.00,0.00,VWS V14.01,2013-10-08 08:06:00,
2013-10-08 03:10:00,40.9,38.2,30.03,South,191,0.0,0.0,90,0.00,,OVC,0.00,0.00,VWS V15.00,2013-10-08 08:10:00,
2013-10-08 03:11:00,40.9,38.2,30.03,South,191,0.0,0.0,90,0.00,,SKC,0.00,0.00,VWS V14.01,2013-10-08 08:11:00,
2013-10-08 03:15:00,40.8,38.1,30.03,South,191,0.0,0.0,90,0.00,,OVC,0.00,0.00,VWS V15.00,2013-10-08 08:15:00,
2013-10-08 03:16:00,40.8,38.1,30.03,South,191,0.0,0.0,90,0.00,,SKC,0.00,0.00,VWS V14.01,2013-10-08 08:16:00,
2013-10-08 03:20:00,40.7,38.0,30.03,South,191,0.0,0.0,90,0.00,,OVC,0.00,0.00,VWS V15.00,2013-10-08 08:20:00,
2013-10-08 03:21:00,40.7,38.0,30.03,South,191,0.0,0.0,90,0.00,,SKC,0.00,0.00,VWS V14.01,2013-10-08 08:21:00,
2013-10-08 03:25:00,40.6,38.2,30.02,South,191,0.0,0.0,91,0.00,,OVC,0.00,0.00,VWS V15.00,2013-10-08 08:25:00,
2013-10-08 03:26:00,40.6,38.2,30.02,South,191,0.0,0.0,91,0.00,,SKC,0.00,0.00,VWS V14.01,2013-10-08 08:26:00,
2013-10-08 03:30:00,40.5,37.8,30.02,South,191,0.0,0.0,90,0.00,,OVC,0.00,0.00,VWS V15.00,2013-10-08 08:30:00,
2013-10-08 03:31:00,40.5,37.8,30.02,South,191,0.0,0.0,90,0.00,,SKC,0.00,0.00,VWS V14.01,2013-10-08 08:31:00,
2013-10-08 03:35:00,40.3,37.9,30.02,South,191,0.0,0.0,91,0.00,,OVC,0.00,0.00,VWS V15.00,2013-10-08 08:35:00,
2013-10-08 03:36:00,40.3,37.9,30.02,South,191,0.0,0.0,91,0.00,,SKC,0.00,0.00,VWS V14.01,2013-10-08 08:36:00,
2013-10-08 03:40:00,40.1,37.7,30.02,South,191,0.0,0.0,91,0.00,,OVC,0.00,0.00,VWS V15.00,2013-10-08 08:40:00,
2013-10-08 03:41:00,40.1,37.7,30.02,South,191,0.0,0.0,91,0.00,,SKC,0.00,0.00,VWS V14.01,2013-10-08 08:41:00,
2013-10-08 03:45:00,39.8,37.4,30.03,South,191,0.0,0.0,91,0.00,,OVC,0.00,0.00,VWS V15.00,2013-10-08 08:45:00,
2013-10-08 03:46:00,39.8,37.4,30.03,South,191,0.0,0.0,91,0.00,,SKC,0.00,0.00,VWS V14.01,2013-10-08 08:46:00,
2013-10-08 03:50:00,39.8,37.7,30.03,South,191,0.0,0.0,92,0.00,,OVC,0.00,0.00,VWS V15.00,2013-10-08 08:50:00,
2013-10-08 03:51:00,39.8,37.7,30.03,South,191,0.0,0.0,92,0.00,,SKC,0.00,0.00,VWS V14.01,2013-10-08 08:51:00,
2013-10-08 03:55:00,39.8,37.7,30.03,South,191,0.0,0.0,92,0.00,,OVC,0.00,0.00,VWS V15.00,2013-10-08 08:55:00,
2013-10-08 03:56:00,39.8,37.7,30.03,South,191,0.0,0.0,92,0.00,,SKC,0.00,0.00,VWS V14.01,2013-10-08 08:56:00,
2013-10-08 04:00:00,40.0,37.9,30.02,South,191,0.0,0.0,92,0.00,,OVC,0.00,0.00,VWS V15.00,2013-10-08 09:00:00,
2013-10-08 04:01:00,40.0,37.9,30.02,South,191,0.0,0.0,92,0.00,,SKC,0.00,0.00,VWS V14.01,2013-10-08 09:01:00,
2013-10-08 04:05:00,39.9,37.5,30.02,South,186,2.0,4.0,91,0.00,,OVC,0.00,0.00,VWS V15.00,2013-10-08 09:05:00,
2013-10-08 04:06:00,39.9,37.5,30.02,South,186,1.0,2.0,91,0.00,,SKC,0.00,0.00,VWS V14.01,2013-10-08 09:06:00,
2013-10-08 04:10:00,39.8,37.4,30.02,South,186,0.0,3.0,91,0.00,,OVC,0.00,0.00,VWS V15.00,2013-10-08 09:10:00,
2013-10-08 04:11:00,39.8,37.4,30.03,South,186,0.0,0.0,91,0.00,,SKC,0.00,0.00,VWS V14.01,2013-10-08 09:11:00,
2013-10-08 04:15:00,40.0,37.9,30.03,South,183,3.0,3.0,92,0.00,,OVC,0.00,0.00,VWS V15.00,2013-10-08 09:15:00,
2013-10-08 04:16:00,40.0,37.9,30.03,South,184,1.0,3.0,92,0.00,,SKC,0.00,0.00,VWS V14.01,2013-10-08 09:16:00,
2013-10-08 04:20:00,40.1,37.7,30.03,South,182,0.0,3.0,91,0.00,,OVC,0.00,0.00,VWS V15.00,2013-10-08 09:20:00,
2013-10-08 04:21:00,40.1,37.7,30.03,South,182,0.0,0.0,91,0.00,,SKC,0.00,0.00,VWS V14.01,2013-10-08 09:21:00,
2013-10-08 04:25:00,40.1,37.7,30.03,South,182,0.0,3.0,91,0.00,,OVC,0.00,0.00,VWS V15.00,2013-10-08 09:25:00,
2013-10-08 04:26:00,40.0,37.6,30.03,South,182,0.0,0.0,91,0.00,,SKC,0.00,0.00,VWS V14.01,2013-10-08 09:26:00,
2013-10-08 04:30:00,40.1,37.7,30.03,South,184,0.0,3.0,91,0.00,,OVC,0.00,0.00,VWS V15.00,2013-10-08 09:30:00,
2013-10-08 04:31:00,40.1,37.7,30.03,South,183,0.0,0.0,91,0.00,,SKC,0.00,0.00,VWS V14.01,2013-10-08 09:31:00,
2013-10-08 04:35:00,40.4,38.0,30.03,South,185,0.0,5.0,91,0.00,,OVC,0.00,0.00,VWS V15.00,2013-10-08 09:35:00,
2013-10-08 04:36:00,40.4,38.0,30.03,South,185,0.0,0.0,91,0.00,,SKC,0.00,0.00,VWS V14.01,2013-10-08 09:36:00,
2013-10-08 04:40:00,40.9,38.2,30.03,South,186,0.0,4.0,90,0.00,,OVC,0.00,0.00,VWS V15.00,2013-10-08 09:40:00,
2013-10-08 04:41:00,40.9,38.2,30.03,South,186,0.0,0.0,90,0.00,,SKC,0.00,0.00,VWS V14.01,2013-10-08 09:41:00,
2013-10-08 04:45:00,41.0,38.3,30.03,South,186,0.0,3.0,90,0.00,,OVC,0.00,0.00,VWS V15.00,2013-10-08 09:45:00,
2013-10-08 04:46:00,41.0,38.3,30.03,South,187,0.0,0.0,90,0.00,,SKC,0.00,0.00,VWS V14.01,2013-10-08 09:46:00,
2013-10-08 04:50:00,40.8,37.8,30.03,South,185,0.0,3.0,89,0.00,,OVC,0.00,0.00,VWS V15.00,2013-10-08 09:50:00,
2013-10-08 04:52:00,40.7,37.7,30.03,South,185,0.0,0.0,89,0.00,,SKC,0.00,0.00,VWS V14.01,2013-10-08 09:52:00,
2013-10-08 04:55:00,40.4,37.7,30.03,South,186,0.0,2.0,90,0.00,,OVC,0.00,0.00,VWS V15.00,2013-10-08 09:55:00,
2013-10-08 04:57:00,40.4,37.7,30.03,South,185,0.0,0.0,90,0.00,,SKC,0.00,0.00,VWS V14.01,2013-10-08 09:57:00,
2013-10-08 05:00:00,40.5,37.8,30.03,South,186,0.0,3.0,90,0.00,,OVC,0.00,0.00,VWS V15.00,2013-10-08 10:00:00,
2013-10-08 05:02:00,40.5,37.8,30.03,South,186,1.0,2.0,90,0.00,,SKC,0.00,0.00,VWS V14.01,2013-10-08 10:02:00,
2013-10-08 05:05:00,40.6,37.6,30.03,South,186,0.0,4.0,89,0.00,,OVC,0.00,0.00,VWS V15.00,2013-10-08 10:05:00,
2013-10-08 05:07:00,40.6,37.6,30.03,South,186,0.0,0.0,89,0.00,,SKC,0.00,0.00,VWS V14.01,2013-10-08 10:07:00,
2013-10-08 05:10:00,40.6,37.6,30.03,SSE,159,0.0,3.0,89,0.00,,OVC,0.00,0.00,VWS V15.00,2013-10-08 10:10:00,
2013-10-08 05:12:00,40.7,37.7,30.03,SSE,159,1.0,2.0,89,0.00,,SKC,0.00,0.00,VWS V14.01,2013-10-08 10:12:00,
2013-10-08 05:15:00,40.7,37.7,30.03,SSE,161,2.0,4.0,89,0.00,,OVC,0.00,0.00,VWS V15.00,2013-10-08 10:15:00,
2013-10-08 05:17:00,40.7,37.7,30.04,SSE,161,0.0,3.0,89,0.00,,SKC,0.00,0.00,VWS V14.01,2013-10-08 10:17:00,
2013-10-08 05:20:00,40.6,37.6,30.04,SSE,163,0.0,4.0,89,0.00,,OVC,0.00,0.00,VWS V15.00,2013-10-08 10:20:00,
2013-10-08 05:23:00,40.6,37.6,30.03,SSE,163,0.0,4.0,89,0.00,,SKC,0.00,0.00,VWS V14.01,2013-10-08 10:23:00,
2013-10-08 05:25:00,40.8,38.1,30.04,SSE,163,0.0,4.0,90,0.00,,OVC,0.00,0.00,VWS V15.00,2013-10-08 10:25:00,
2013-10-08 05:28:00,40.8,37.8,30.04,SSE,164,0.0,1.0,89,0.00,,SKC,0.00,0.00,VWS V14.01,2013-10-08 10:28:00,
2013-10-08 05:30:00,40.9,38.2,30.04,South,182,1.0,3.0,90,0.00,,OVC,0.00,0.00,VWS V15.00,2013-10-08 10:30:00,
2013-10-08 05:33:00,40.9,37.9,30.03,South,182,0.0,3.0,89,0.00,,SKC,0.00,0.00,VWS V14.01,2013-10-08 10:33:00,
2013-10-08 05:35:00,40.7,37.7,30.03,South,183,0.0,3.0,89,0.00,,OVC,0.00,0.00,VWS V15.00,2013-10-08 10:35:00,
2013-10-08 05:38:00,40.6,37.6,30.03,South,183,0.0,0.0,89,0.00,,SKC,0.00,0.00,VWS V14.01,2013-10-08 10:38:00,
2013-10-08 05:40:00,40.4,37.4,30.04,South,184,0.0,4.0,89,0.00,,OVC,0.00,0.00,VWS V15.00,2013-10-08 10:40:00,
2013-10-08 05:43:00,40.5,37.5,30.04,South,183,0.0,2.0,89,0.00,,SKC,0.00,0.00,VWS V14.01,2013-10-08 10:43:00,
2013-10-08 05:45:00,40.4,37.4,30.04,South,185,2.0,4.0,89,0.00,,OVC,0.00,0.00,VWS V15.00,2013-10-08 10:45:00,
2013-10-08 05:48:00,40.4,37.4,30.04,South,185,0.0,3.0,89,0.00,,SKC,0.00,0.00,VWS V14.01,2013-10-08 10:48:00,
2013-10-08 05:50:00,41.1,38.4,30.04,SSW,194,3.0,5.0,90,0.00,,OVC,0.00,0.00,VWS V15.00,2013-10-08 10:50:00,
2013-10-08 05:53:00,41.3,38.3,30.04,SSW,195,2.0,3.0,89,0.00,,SKC,0.00,0.00,VWS V14.01,2013-10-08 10:53:00,
2013-10-08 05:55:00,41.5,38.2,30.04,SSW,194,1.0,3.0,88,0.00,,OVC,0.00,0.00,VWS V15.00,2013-10-08 10:55:00,
2013-10-08 05:58:00,41.5,38.2,30.04,SSW,194,0.0,1.0,88,0.00,,SKC,0.00,0.00,VWS V14.01,2013-10-08 10:58:00,
2013-10-08 06:00:00,41.5,37.9,30.04,SSW,194,0.0,3.0,87,0.00,,OVC,0.00,0.00,VWS V15.00,2013-10-08 11:00:00,
2013-10-08 06:03:00,41.4,37.8,30.04,SSW,194,0.0,0.0,87,0.00,,SKC,0.00,0.00,VWS V14.01,2013-10-08 11:03:00,
2013-10-08 06:05:00,41.2,37.6,30.04,SSW,194,0.0,3.0,87,0.00,,OVC,0.00,0.00,VWS V15.00,2013-10-08 11:05:00,
2013-10-08 06:08:00,41.2,37.9,30.04,SSW,194,0.0,1.0,88,0.00,,SKC,0.00,0.00,VWS V14.01,2013-10-08 11:08:00,
2013-10-08 06:10:00,40.9,37.3,30.03,SSW,194,0.0,1.0,87,0.00,,OVC,0.00,0.00,VWS V15.00,2013-10-08 11:10:00,
2013-10-08 06:13:00,40.7,37.4,30.03,SSW,194,1.0,1.0,88,0.00,,SKC,0.00,0.00,VWS V14.01,2013-10-08 11:13:00,
2013-10-08 06:15:00,40.5,37.2,30.03,SSE,167,0.0,3.0,88,0.00,,OVC,0.00,0.00,VWS V15.00,2013-10-08 11:15:00,
2013-10-08 06:18:00,40.4,37.4,30.03,SSE,167,0.0,2.0,89,0.00,,SKC,0.00,0.00,VWS V14.01,2013-10-08 11:18:00,
2013-10-08 06:20:00,40.4,37.4,30.03,SSE,166,2.0,3.0,89,0.00,,OVC,0.00,0.00,VWS V15.00,2013-10-08 11:20:00,
2013-10-08 06:23:00,40.4,37.4,30.03,South,190,0.0,5.0,89,0.00,,SKC,0.00,0.00,VWS V14.01,2013-10-08 11:23:00,
2013-10-08 06:25:00,40.6,37.3,30.03,South,188,2.0,5.0,88,0.00,,OVC,0.00,0.00,VWS V15.00,2013-10-08 11:25:00,
2013-10-08 06:28:00,40.6,37.3,30.03,South,182,3.0,5.0,88,0.00,,SKC,0.00,0.00,VWS V14.01,2013-10-08 11:28:00,
2013-10-08 06:30:00,40.4,37.1,30.03,South,181,0.0,5.0,88,0.00,,OVC,0.00,0.00,VWS V15.00,2013-10-08 11:30:00,
2013-10-08 06:33:00,40.5,37.5,30.03,South,181,0.0,3.0,89,0.00,,SKC,0.00,0.00,VWS V14.01,2013-10-08 11:33:00,
2013-10-08 06:35:00,40.7,37.7,30.03,South,180,3.0,4.0,89,0.00,,OVC,0.00,0.00,VWS V15.00,2013-10-08 11:35:00,
2013-10-08 06:38:00,41.0,38.0,30.03,South,182,0.0,4.0,89,0.00,,SKC,0.00,0.00,VWS V14.01,2013-10-08 11:38:00,
2013-10-08 06:40:00,41.3,38.3,30.03,SSW,207,0.0,6.0,89,0.00,,OVC,0.00,0.00,VWS V15.00,2013-10-08 11:40:00,
2013-10-08 06:43:00,41.4,38.1,30.02,South,186,4.0,4.0,88,0.00,,SKC,0.00,0.00,VWS V14.01,2013-10-08 11:43:00,
2013-10-08 06:45:00,41.6,38.3,30.03,SSW,202,4.0,5.0,88,0.00,,OVC,0.00,0.00,VWS V15.00,2013-10-08 11:45:00,
2013-10-08 06:48:00,41.7,38.4,30.03,SW,228,0.0,6.0,88,0.00,,SKC,0.00,0.00,VWS V14.01,2013-10-08 11:48:00,
2013-10-08 06:50:00,42.1,38.5,30.03,SSW,192,3.0,7.0,87,0.00,,OVC,0.00,0.00,VWS V15.00,2013-10-08 11:50:00,
2013-10-08 06:53:00,42.3,38.7,30.03,SSW,213,6.0,6.0,87,0.00,,SKC,0.00,0.00,VWS V14.01,2013-10-08 11:53:00,
2013-10-08 06:55:00,42.4,38.5,30.03,South,180,3.0,6.0,86,0.00,,OVC,0.00,0.00,VWS V15.00,2013-10-08 11:55:00,
2013-10-08 06:58:00,42.4,38.5,30.03,South,180,3.0,5.0,86,0.00,,SKC,0.00,0.00,VWS V14.01,2013-10-08 11:58:00,
2013-10-08 07:00:00,42.6,38.7,30.03,SSW,195,2.0,6.0,86,0.00,,OVC,0.00,0.00,VWS V15.00,2013-10-08 12:00:00,
2013-10-08 07:03:00,42.8,39.2,30.03,SSW,193,4.0,5.0,87,0.00,,SKC,0.00,0.00,VWS V14.01,2013-10-08 12:03:00,
2013-10-08 07:05:00,42.8,38.9,30.03,SSE,165,0.0,6.0,86,0.00,,OVC,0.00,0.00,VWS V15.00,2013-10-08 12:05:00,
2013-10-08 07:08:00,42.6,38.4,30.03,SSW,195,4.0,5.0,85,0.00,,SKC,0.00,0.00,VWS V14.01,2013-10-08 12:08:00,
2013-10-08 07:10:00,42.6,38.7,30.03,SSW,196,6.0,6.0,86,0.00,,OVC,0.00,0.00,VWS V15.00,2013-10-08 12:10:00,
2013-10-08 07:13:00,42.7,38.5,30.03,SW,225,2.0,6.0,85,0.00,,SKC,0.00,0.00,VWS V14.01,2013-10-08 12:13:00,
2013-10-08 07:15:00,42.6,38.7,30.03,SSW,211,0.0,6.0,86,0.00,,OVC,0.00,5.00,VWS V15.00,2013-10-08 12:15:00,
2013-10-08 07:18:00,42.7,38.8,30.03,South,174,0.0,5.0,86,0.00,,SKC,0.00,5.00,VWS V14.01,2013-10-08 12:18:00,
2013-10-08 07:20:00,42.6,38.4,30.03,South,173,2.0,6.0,85,0.00,,OVC,0.00,7.00,VWS V15.00,2013-10-08 12:20:00,
2013-10-08 07:23:00,42.5,38.3,30.03,South,171,1.0,4.0,85,0.00,,SKC,0.00,7.00,VWS V14.01,2013-10-08 12:23:00,
2013-10-08 07:25:00,42.4,38.2,30.03,South,179,0.0,5.0,85,0.00,,OVC,0.00,7.00,VWS V15.00,2013-10-08 12:25:00,
2013-10-08 07:28:00,42.3,38.1,30.03,South,180,2.0,2.0,85,0.00,,SKC,0.00,9.00,VWS V14.01,2013-10-08 12:28:00,
2013-10-08 07:30:00,42.4,38.2,30.03,South,188,2.0,5.0,85,0.00,,OVC,0.00,11.00,VWS V15.00,2013-10-08 12:30:00,
2013-10-08 07:33:00,42.4,38.2,30.03,South,180,4.0,4.0,85,0.00,,SKC,0.00,11.00,VWS V14.01,2013-10-08 12:33:00,
2013-10-08 07:35:00,42.5,38.6,30.03,SSW,209,3.0,5.0,86,0.00,,OVC,0.00,11.00,VWS V15.00,2013-10-08 12:35:00,
2013-10-08 07:38:00,42.6,38.7,30.02,SSW,212,2.0,5.0,86,0.00,,SKC,0.00,11.00,VWS V14.01,2013-10-08 12:38:00,
2013-10-08 07:40:00,42.8,38.9,30.02,South,184,4.0,6.0,86,0.00,,OVC,0.00,12.00,VWS V15.00,2013-10-08 12:40:00,
2013-10-08 07:43:00,42.9,39.0,30.02,SE,131,0.0,6.0,86,0.00,,SKC,0.00,12.00,VWS V14.01,2013-10-08 12:43:00,
2013-10-08 07:45:00,43.0,39.1,30.02,SSE,148,6.0,7.0,86,0.00,,OVC,0.00,12.00,VWS V15.00,2013-10-08 12:45:00,
2013-10-08 07:48:00,43.1,38.9,30.02,SSE,149,2.0,9.0,85,0.00,,SKC,0.00,12.00,VWS V14.01,2013-10-08 12:48:00,
2013-10-08 07:50:00,43.3,39.4,30.02,South,178,4.0,9.0,86,0.00,,OVC,0.00,14.00,VWS V15.00,2013-10-08 12:50:00,
2013-10-08 07:53:00,43.5,39.3,30.02,SSW,194,1.0,8.0,85,0.00,,SKC,0.00,14.00,VWS V14.01,2013-10-08 12:53:00,
2013-10-08 07:55:00,43.7,39.5,30.02,South,181,3.0,8.0,85,0.00,,OVC,0.00,14.00,VWS V15.00,2013-10-08 12:55:00,
2013-10-08 07:58:00,44.0,40.1,30.02,South,183,0.0,5.0,86,0.00,,SKC,0.00,14.00,VWS V14.01,2013-10-08 12:58:00,
2013-10-08 08:00:00,44.4,40.2,30.02,SE,126,1.0,7.0,85,0.00,,OVC,0.00,16.00,VWS V15.00,2013-10-08 13:00:00,
2013-10-08 08:03:00,44.7,40.2,30.02,South,190,1.0,8.0,84,0.00,,SKC,0.00,16.00,VWS V14.01,2013-10-08 13:03:00,
2013-10-08 08:05:00,45.0,40.5,30.02,South,185,2.0,9.0,84,0.00,,OVC,0.00,16.00,VWS V15.00,2013-10-08 13:05:00,
2013-10-08 08:09:00,45.2,40.3,30.01,SSW,203,1.0,12.0,83,0.00,,SKC,0.00,14.00,VWS V14.01,2013-10-08 13:09:00,
2013-10-08 08:10:00,45.4,40.5,30.01,SE,128,5.0,12.0,83,0.00,,OVC,0.00,18.00,VWS V15.00,2013-10-08 13:10:00,
2013-10-08 08:14:00,45.6,40.7,30.01,South,176,9.0,9.0,83,0.00,,SKC,0.00,18.00,VWS V14.01,2013-10-08 13:14:00,
2013-10-08 08:15:00,45.9,40.7,30.02,SE,132,8.0,11.0,82,0.00,,OVC,0.00,19.00,VWS V15.00,2013-10-08 13:15:00,
2013-10-08 08:19:00,46.2,40.7,30.01,SSE,163,3.0,8.0,81,0.00,,SKC,0.00,21.00,VWS V14.01,2013-10-08 13:19:00,
2013-10-08 08:20:00,46.6,41.1,30.01,SSE,162,3.0,10.0,81,0.00,,OVC,0.00,19.00,VWS V15.00,2013-10-08 13:20:00,
2013-10-08 08:24:00,46.9,41.4,30.01,South,184,5.0,9.0,81,0.00,,SKC,0.00,21.00,VWS V14.01,2013-10-08 13:24:00,
2013-10-08 08:25:00,47.1,41.3,30.01,SSE,163,1.0,9.0,80,0.00,,OVC,0.00,21.00,VWS V15.00,2013-10-08 13:25:00,
2013-10-08 08:29:00,47.4,41.5,30.01,SW,217,0.0,4.0,80,0.00,,SKC,0.00,21.00,VWS V14.01,2013-10-08 13:29:00,
2013-10-08 08:30:00,47.7,41.8,30.01,SW,220,0.0,10.0,80,0.00,,OVC,0.00,23.00,VWS V15.00,2013-10-08 13:30:00,
2013-10-08 08:34:00,47.9,41.7,30.01,SSW,194,4.0,11.0,79,0.00,,SKC,0.00,25.00,VWS V14.01,2013-10-08 13:34:00,
2013-10-08 08:35:00,48.1,41.9,30.01,SSW,194,1.0,11.0,79,0.00,,OVC,0.00,25.00,VWS V15.00,2013-10-08 13:35:00,
2013-10-08 08:39:00,48.3,42.1,30.01,South,188,3.0,8.0,79,0.00,,SKC,0.00,30.00,VWS V14.01,2013-10-08 13:39:00,
2013-10-08 08:40:00,48.5,42.0,30.01,South,184,4.0,8.0,78,0.00,,OVC,0.00,35.00,VWS V15.00,2013-10-08 13:40:00,
2013-10-08 08:44:00,48.6,42.4,30.01,SW,217,3.0,10.0,79,0.00,,SKC,0.00,28.00,VWS V14.01,2013-10-08 13:44:00,
2013-10-08 08:45:00,48.8,42.6,30.00,SSW,202,6.0,10.0,79,0.00,,OVC,0.00,42.00,VWS V15.00,2013-10-08 13:45:00,
2013-10-08 08:49:00,49.0,42.5,30.01,SSW,195,5.0,7.0,78,0.00,,SKC,0.00,40.00,VWS V14.01,2013-10-08 13:49:00,
2013-10-08 08:50:00,49.2,42.6,30.01,SW,220,0.0,7.0,78,0.00,,OVC,0.00,33.00,VWS V15.00,2013-10-08 13:50:00,
2013-10-08 08:54:00,49.4,42.8,30.01,SSE,165,4.0,7.0,78,0.00,,SKC,0.00,30.00,VWS V14.01,2013-10-08 13:54:00,
2013-10-08 08:55:00,49.6,42.7,30.01,SW,234,3.0,8.0,77,0.00,,OVC,0.00,32.00,VWS V15.00,2013-10-08 13:55:00,
2013-10-08 08:59:00,49.9,43.0,30.00,WSW,251,0.0,8.0,77,0.00,,SKC,0.00,51.00,VWS V14.01,2013-10-08 13:59:00,
2013-10-08 09:00:00,50.0,42.7,30.00,SSW,200,10.0,10.0,76,0.00,,OVC,0.00,35.00,VWS V15.00,2013-10-08 14:00:00,
2013-10-08 09:05:00,50.3,43.0,30.00,SW,215,4.0,13.0,76,0.00,,SKC,0.00,35.00,VWS V14.01,2013-10-08 14:05:00,
2013-10-08 09:10:00,50.6,43.7,30.00,West,261,2.0,6.0,77,0.00,,SKC,0.00,35.00,VWS V14.01,2013-10-08 14:10:00,
2013-10-08 09:15:00,50.9,43.6,30.00,SW,234,4.0,10.0,76,0.00,,SKC,0.00,125.00,VWS V14.01,2013-10-08 14:15:00,
2013-10-08 09:20:00,51.4,44.1,30.00,SSW,197,3.0,11.0,76,0.00,,SKC,0.00,174.00,VWS V14.01,2013-10-08 14:20:00,
2013-10-08 09:25:00,51.9,44.2,30.00,SSW,194,8.0,10.0,75,0.00,,SKC,0.00,206.00,VWS V14.01,2013-10-08 14:25:00,
2013-10-08 09:30:00,52.3,44.3,30.00,SSE,155,7.0,11.0,74,0.00,,SKC,0.00,311.00,VWS V14.01,2013-10-08 14:30:00,
2013-10-08 09:35:00,52.8,44.4,30.00,South,186,2.0,8.0,73,0.00,,SKC,0.00,332.00,VWS V14.01,2013-10-08 14:35:00,
2013-10-08 09:40:00,53.1,44.3,29.99,ESE,118,8.0,11.0,72,0.00,,SKC,0.00,343.00,VWS V14.01,2013-10-08 14:40:00,
2013-10-08 09:45:00,53.5,45.1,29.99,SSW,208,0.0,13.0,73,0.00,,SKC,0.00,190.00,VWS V14.01,2013-10-08 14:45:00,
2013-10-08 09:50:00,53.9,45.5,29.99,SW,229,3.0,7.0,73,0.00,,SKC,0.00,98.00,VWS V14.01,2013-10-08 14:50:00,
2013-10-08 09:55:00,54.4,45.2,29.99,SSW,210,3.0,8.0,71,0.00,,SKC,0.00,62.00,VWS V14.01,2013-10-08 14:55:00,
2013-10-08 10:00:00,54.9,45.7,29.99,South,173,4.0,8.0,71,0.00,,SKC,0.00,165.00,VWS V14.01,2013-10-08 15:00:00,
2013-10-08 10:05:00,55.5,45.5,29.98,SW,234,6.0,13.0,69,0.00,,SKC,0.00,40.00,VWS V14.01,2013-10-08 15:05:00,
2013-10-08 10:10:00,55.9,45.5,29.98,SW,223,3.0,12.0,68,0.00,,SKC,0.00,118.00,VWS V14.01,2013-10-08 15:10:00,
2013-10-08 10:15:00,56.4,45.6,29.98,SE,145,6.0,13.0,67,0.00,,SKC,0.00,123.00,VWS V14.01,2013-10-08 15:15:00,
2013-10-08 10:20:00,56.8,46.4,29.98,SSW,199,3.0,14.0,68,0.00,,SKC,0.00,381.00,VWS V14.01,2013-10-08 15:20:00,
2013-10-08 10:25:00,57.2,46.4,29.98,SSE,166,7.0,15.0,67,0.00,,SKC,0.00,142.00,VWS V14.01,2013-10-08 15:25:00,
2013-10-08 10:30:00,57.7,46.0,29.98,East,101,1.0,11.0,65,0.00,,SKC,0.00,424.00,VWS V14.01,2013-10-08 15:30:00,
2013-10-08 10:35:00,58.3,46.6,29.98,SW,231,2.0,12.0,65,0.00,,SKC,0.00,497.00,VWS V14.01,2013-10-08 15:35:00,
2013-10-08 10:40:00,59.0,46.8,29.98,SW,216,3.0,12.0,64,0.00,,SKC,0.00,489.00,VWS V14.01,2013-10-08 15:40:00,
2013-10-08 10:45:00,59.0,46.0,29.98,SSW,209,5.0,12.0,62,0.00,,SKC,0.00,51.00,VWS V14.01,2013-10-08 15:45:00,
2013-10-08 10:50:00,59.7,46.7,29.97,South,175,9.0,10.0,62,0.00,,SKC,0.00,357.00,VWS V14.01,2013-10-08 15:50:00,
2013-10-08 10:55:00,60.3,47.7,29.97,South,190,4.0,12.0,63,0.00,,SKC,0.00,531.00,VWS V14.01,2013-10-08 15:55:00,
2013-10-08 11:00:00,60.8,47.7,29.97,SSE,155,11.0,11.0,62,0.00,,SKC,0.00,490.00,VWS V14.01,2013-10-08 16:00:00,
2013-10-08 11:05:00,61.3,46.9,29.97,SSE,153,4.0,12.0,59,0.00,,SKC,0.00,557.00,VWS V14.01,2013-10-08 16:05:00,
2013-10-08 11:10:00,62.0,46.6,29.97,SW,229,5.0,13.0,57,0.00,,OVC,0.00,566.00,VWS V15.00,2013-10-08 16:10:00,
2013-10-08 11:11:00,61.9,46.5,29.97,SSE,153,13.0,13.0,57,0.00,,SKC,0.00,566.00,VWS V14.01,2013-10-08 16:11:00,
2013-10-08 11:15:00,62.3,46.9,29.96,West,263,4.0,11.0,57,0.00,,OVC,0.00,578.00,VWS V15.00,2013-10-08 16:15:00,
2013-10-08 11:16:00,62.3,46.4,29.96,WSW,258,7.0,11.0,56,0.00,,SKC,0.00,575.00,VWS V14.01,2013-10-08 16:16:00,
2013-10-08 11:20:00,62.8,46.9,29.96,WSW,240,6.0,15.0,56,0.00,,OVC,0.00,587.00,VWS V15.00,2013-10-08 16:20:00,
2013-10-08 11:21:00,62.8,46.9,29.96,West,263,7.0,15.0,56,0.00,,SKC,0.00,585.00,VWS V14.01,2013-10-08 16:21:00,
2013-10-08 11:25:00,63.1,46.7,29.96,WSW,238,3.0,11.0,55,0.00,,OVC,0.00,596.00,VWS V15.00,2013-10-08 16:25:00,
2013-10-08 11:26:00,63.1,47.2,29.96,SSE,164,3.0,11.0,56,0.00,,SKC,0.00,596.00,VWS V14.01,2013-10-08 16:26:00,
2013-10-08 11:30:00,63.7,48.2,29.96,SW,223,5.0,9.0,57,0.00,,OVC,0.00,615.00,VWS V15.00,2013-10-08 16:30:00,
2013-10-08 11:31:00,63.6,48.1,29.96,SW,234,9.0,9.0,57,0.00,,SKC,0.00,605.00,VWS V14.01,2013-10-08 16:31:00,
2013-10-08 11:35:00,64.1,46.6,29.96,SSW,202,5.0,10.0,53,0.00,,OVC,0.00,629.00,VWS V15.00,2013-10-08 16:35:00,
2013-10-08 11:36:00,64.1,46.6,29.96,WSW,246,7.0,10.0,53,0.00,,SKC,0.00,628.00,VWS V14.01,2013-10-08 16:36:00,
2013-10-08 11:40:00,64.6,47.6,29.95,South,184,0.0,9.0,54,0.00,,OVC,0.00,462.00,VWS V15.00,2013-10-08 16:40:00,
2013-10-08 11:41:00,64.6,47.1,29.95,SE,146,6.0,9.0,53,0.00,,SKC,0.00,462.00,VWS V14.01,2013-10-08 16:41:00,
2013-10-08 11:45:00,64.8,47.8,29.95,SW,217,2.0,9.0,54,0.00,,OVC,0.00,575.00,VWS V15.00,2013-10-08 16:45:00,
2013-10-08 11:46:00,64.8,47.8,29.95,WSW,245,6.0,9.0,54,0.00,,SKC,0.00,548.00,VWS V14.01,2013-10-08 16:46:00,
2013-10-08 11:50:00,65.2,47.2,29.95,South,173,7.0,10.0,52,0.00,,OVC,0.00,654.00,VWS V15.00,2013-10-08 16:50:00,
2013-10-08 11:51:00,65.1,47.1,29.95,South,169,6.0,9.0,52,0.00,,SKC,0.00,654.00,VWS V14.01,2013-10-08 16:51:00,
2013-10-08 11:55:00,65.8,47.2,29.95,WSW,244,8.0,12.0,51,0.00,,OVC,0.00,696.00,VWS V15.00,2013-10-08 16:55:00,
2013-10-08 11:56:00,65.7,47.6,29.95,WSW,237,8.0,12.0,52,0.00,,SKC,0.00,696.00,VWS V14.01,2013-10-08 16:56:00,
2013-10-08 12:00:00,66.2,47.6,29.95,South,174,6.0,15.0,51,0.00,,OVC,0.00,487.00,VWS V15.00,2013-10-08 17:00:00,
2013-10-08 12:01:00,66.1,47.5,29.95,SSW,210,5.0,15.0,51,0.00,,SKC,0.00,499.00,VWS V14.01,2013-10-08 17:01:00,
2013-10-08 12:05:00,66.5,47.3,29.95,SSW,194,3.0,10.0,50,0.00,,OVC,0.00,612.00,VWS V15.00,2013-10-08 17:05:00,
2013-10-08 12:06:00,66.5,47.3,29.95,SSW,194,3.0,10.0,50,0.00,,SKC,0.00,612.00,VWS V14.01,2013-10-08 17:06:00,
2013-10-08 12:10:00,67.1,46.8,29.95,WSW,242,0.0,17.0,48,0.00,,OVC,0.00,577.00,VWS V15.00,2013-10-08 17:10:00,
2013-10-08 12:11:00,67.1,47.3,29.95,WSW,242,3.0,17.0,49,0.00,,SKC,0.00,577.00,VWS V14.01,2013-10-08 17:11:00,
2013-10-08 12:15:00,66.8,46.5,29.95,SW,234,11.0,16.0,48,0.00,,OVC,0.00,438.00,VWS V15.00,2013-10-08 17:15:00,
2013-10-08 12:16:00,66.8,46.5,29.95,WSW,253,10.0,16.0,48,0.00,,SKC,0.00,438.00,VWS V14.01,2013-10-08 17:16:00,
2013-10-08 12:20:00,66.8,46.5,29.95,South,170,1.0,14.0,48,0.00,,OVC,0.00,520.00,VWS V15.00,2013-10-08 17:20:00,
2013-10-08 12:21:00,66.8,46.5,29.95,SSE,165,4.0,14.0,48,0.00,,SKC,0.00,520.00,VWS V14.01,2013-10-08 17:21:00,
2013-10-08 12:25:00,67.1,46.8,29.94,SSW,194,4.0,13.0,48,0.00,,OVC,0.00,584.00,VWS V15.00,2013-10-08 17:25:00,
2013-10-08 12:26:00,67.0,46.7,29.94,South,178,6.0,13.0,48,0.00,,SKC,0.00,584.00,VWS V14.01,2013-10-08 17:26:00,
2013-10-08 12:30:00,67.4,46.5,29.94,SW,217,17.0,17.0,47,0.00,,OVC,0.00,689.00,VWS V15.00,2013-10-08 17:30:00,
2013-10-08 12:31:00,67.5,46.6,29.94,SW,222,7.0,15.0,47,0.00,,SKC,0.00,631.00,VWS V14.01,2013-10-08 17:31:00,
2013-10-08 12:35:00,67.6,47.8,29.94,WSW,254,8.0,17.0,49,0.00,,OVC,0.00,701.00,VWS V15.00,2013-10-08 17:35:00,
2013-10-08 12:36:00,67.6,47.8,29.94,WSW,248,9.0,17.0,49,0.00,,SKC,0.00,701.00,VWS V14.01,2013-10-08 17:36:00,
2013-10-08 12:40:00,68.0,48.2,29.93,South,172,11.0,17.0,49,0.00,,OVC,0.00,548.00,VWS V15.00,2013-10-08 17:40:00,
2013-10-08 12:41:00,68.0,48.2,29.93,ESE,118,10.0,17.0,49,0.00,,SKC,0.00,548.00,VWS V14.01,2013-10-08 17:41:00,
2013-10-08 12:45:00,68.3,46.7,29.93,SW,231,10.0,14.0,46,0.00,,OVC,0.00,499.00,VWS V15.00,2013-10-08 17:45:00,
2013-10-08 12:46:00,68.3,46.7,29.93,SW,231,10.0,14.0,46,0.00,,SKC,0.00,499.00,VWS V14.01,2013-10-08 17:46:00,
2013-10-08 12:50:00,68.1,46.6,29.93,SW,229,9.0,12.0,46,0.00,,OVC,0.00,603.00,VWS V15.00,2013-10-08 17:50:00,
2013-10-08 12:51:00,68.1,46.6,29.93,SW,229,9.0,12.0,46,0.00,,SKC,0.00,603.00,VWS V14.01,2013-10-08 17:51:00,
2013-10-08 12:55:00,68.4,46.2,29.93,SW,226,5.0,15.0,45,0.00,,OVC,0.00,582.00,VWS V15.00,2013-10-08 17:55:00,
2013-10-08 12:56:00,68.4,46.2,29.93,SW,226,5.0,15.0,45,0.00,,SKC,0.00,582.00,VWS V14.01,2013-10-08 17:56:00,
2013-10-08 13:00:00,68.5,45.2,29.93,SSW,203,9.0,17.0,43,0.00,,OVC,0.00,657.00,VWS V15.00,2013-10-08 18:00:00,
2013-10-08 13:01:00,68.5,45.1,29.93,SSW,203,9.0,17.0,43,0.00,,SKC,0.00,657.00,VWS V14.01,2013-10-08 18:01:00,
2013-10-08 13:05:00,68.5,46.3,29.93,WSW,246,8.0,19.0,45,0.00,,OVC,0.00,529.00,VWS V15.00,2013-10-08 18:05:00,
2013-10-08 13:06:00,68.5,46.3,29.93,WSW,246,8.0,19.0,45,0.00,,SKC,0.00,529.00,VWS V14.01,2013-10-08 18:06:00,
2013-10-08 13:10:00,68.6,46.4,29.92,WSW,248,9.0,19.0,45,0.00,,OVC,0.00,700.00,VWS V15.00,2013-10-08 18:10:00,
2013-10-08 13:11:00,68.6,46.4,29.92,WSW,248,9.0,19.0,45,0.00,,SKC,0.00,700.00,VWS V14.01,2013-10-08 18:11:00,
2013-10-08 13:15:00,69.2,46.4,29.92,SW,218,7.0,12.0,44,0.00,,OVC,0.00,675.00,VWS V15.00,2013-10-08 18:15:00,
2013-10-08 13:16:00,69.2,46.4,29.92,SSE,151,7.0,7.0,44,0.00,,SKC,0.00,675.00,VWS V14.01,2013-10-08 18:16:00,
2013-10-08 13:20:00,69.3,47.1,29.92,SW,216,2.0,12.0,45,0.00,,OVC,0.00,677.00,VWS V15.00,2013-10-08 18:20:00,
2013-10-08 13:21:00,69.3,47.7,29.92,SSE,163,8.0,8.0,46,0.00,,SKC,0.00,677.00,VWS V14.01,2013-10-08 18:21:00,
2013-10-08 13:25:00,69.4,47.2,29.92,WSW,240,8.0,10.0,45,0.00,,OVC,0.00,633.00,VWS V15.00,2013-10-08 18:25:00,
2013-10-08 13:26:00,69.5,47.2,29.91,SSW,194,7.0,8.0,45,0.00,,SKC,0.00,657.00,VWS V14.01,2013-10-08 18:26:00,
2013-10-08 13:30:00,69.5,46.7,29.91,WSW,254,7.0,19.0,44,0.00,,OVC,0.00,677.00,VWS V15.00,2013-10-08 18:30:00,
2013-10-08 13:31:00,69.5,46.7,29.91,SW,236,5.0,9.0,44,0.00,,SKC,0.00,677.00,VWS V14.01,2013-10-08 18:31:00,
2013-10-08 13:35:00,69.7,48.0,29.91,WSW,253,6.0,14.0,46,0.00,,OVC,0.00,673.00,VWS V15.00,2013-10-08 18:35:00,
2013-10-08 13:36:00,69.8,46.9,29.91,South,183,8.0,11.0,44,0.00,,SKC,0.00,673.00,VWS V14.01,2013-10-08 18:36:00,
2013-10-08 13:40:00,69.8,46.3,29.91,SW,219,9.0,21.0,43,0.00,,OVC,0.00,605.00,VWS V15.00,2013-10-08 18:40:00,
2013-10-08 13:41:00,69.7,46.2,29.92,ESE,114,13.0,13.0,43,0.00,,SKC,0.00,615.00,VWS V14.01,2013-10-08 18:41:00,
2013-10-08 13:45:00,69.6,46.8,29.91,SW,233,7.0,21.0,44,0.00,,OVC,0.00,582.00,VWS V15.00,2013-10-08 18:45:00,
2013-10-08 13:47:00,69.6,46.8,29.91,WSW,237,6.0,7.0,44,0.00,,SKC,0.00,582.00,VWS V14.01,2013-10-08 18:47:00,
2013-10-08 13:50:00,69.6,46.8,29.91,SW,234,9.0,17.0,44,0.00,,OVC,0.00,543.00,VWS V15.00,2013-10-08 18:50:00,
2013-10-08 13:52:00,69.6,47.3,29.91,SSW,196,5.0,9.0,45,0.00,,SKC,0.00,543.00,VWS V14.01,2013-10-08 18:52:00,
2013-10-08 13:55:00,70.0,46.5,29.91,WSW,246,11.0,16.0,43,0.00,,OVC,0.00,388.00,VWS V15.00,2013-10-08 18:55:00,
2013-10-08 13:57:00,70.0,46.5,29.90,WSW,246,8.0,20.0,43,0.00,,SKC,0.00,596.00,VWS V14.01,2013-10-08 18:57:00,
2013-10-08 14:00:00,70.0,46.5,29.90,WSW,250,6.0,20.0,43,0.00,,OVC,0.00,417.00,VWS V15.00,2013-10-08 19:00:00,
2013-10-08 14:02:00,70.1,46.6,29.91,WSW,254,10.0,13.0,43,0.00,,SKC,0.00,417.00,VWS V14.01,2013-10-08 19:02:00,
2013-10-08 14:05:00,70.2,46.1,29.90,SW,235,8.0,16.0,42,0.00,,OVC,0.00,693.00,VWS V15.00,2013-10-08 19:05:00,
2013-10-08 14:07:00,70.3,46.8,29.90,SW,228,3.0,8.0,43,0.00,,SKC,0.00,693.00,VWS V14.01,2013-10-08 19:07:00,
2013-10-08 14:10:00,70.5,46.3,29.90,WSW,244,9.0,16.0,42,0.00,,OVC,0.00,645.00,VWS V15.00,2013-10-08 19:10:00,
2013-10-08 14:12:00,70.5,46.3,29.90,SW,233,10.0,14.0,42,0.00,,SKC,0.00,645.00,VWS V14.01,2013-10-08 19:12:00,
2013-10-08 14:15:00,70.2,46.1,29.90,WSW,242,8.0,20.0,42,0.00,,OVC,0.00,313.00,VWS V15.00,2013-10-08 19:15:00,
2013-10-08 14:17:00,70.3,46.8,29.90,WSW,240,12.0,12.0,43,0.00,,SKC,0.00,313.00,VWS V14.01,2013-10-08 19:17:00,
2013-10-08 14:20:00,70.0,47.1,29.90,ESE,103,4.0,18.0,44,0.00,,OVC,0.00,462.00,VWS V15.00,2013-10-08 19:20:00,
2013-10-08 14:22:00,70.0,47.7,29.90,West,262,5.0,11.0,45,0.00,,SKC,0.00,417.00,VWS V14.01,2013-10-08 19:22:00,
2013-10-08 14:25:00,70.2,47.9,29.90,SW,229,6.0,14.0,45,0.00,,OVC,0.00,626.00,VWS V15.00,2013-10-08 19:25:00,
2013-10-08 14:27:00,70.2,47.9,29.90,SW,219,3.0,8.0,45,0.00,,SKC,0.00,673.00,VWS V14.01,2013-10-08 19:27:00,
2013-10-08 14:30:00,70.6,47.0,29.89,SSW,202,10.0,17.0,43,0.00,,OVC,0.00,677.00,VWS V15.00,2013-10-08 19:30:00,
2013-10-08 14:32:00,70.7,46.5,29.89,SSW,213,5.0,10.0,42,0.00,,SKC,0.00,677.00,VWS V14.01,2013-10-08 19:32:00,
2013-10-08 14:35:00,70.9,46.7,29.89,SW,216,4.0,17.0,42,0.00,,OVC,0.00,649.00,VWS V15.00,2013-10-08 19:35:00,
2013-10-08 14:37:00,70.9,47.3,29.89,South,188,8.0,14.0,43,0.00,,SKC,0.00,643.00,VWS V14.01,2013-10-08 19:37:00,
2013-10-08 14:40:00,71.2,47.0,29.89,SSW,192,7.0,20.0,42,0.00,,OVC,0.00,592.00,VWS V15.00,2013-10-08 19:40:00,
2013-10-08 14:42:00,71.2,47.0,29.89,WSW,248,6.0,9.0,42,0.00,,SKC,0.00,548.00,VWS V14.01,2013-10-08 19:42:00,
2013-10-08 14:45:00,71.1,46.9,29.90,South,187,14.0,20.0,42,0.00,,OVC,0.00,610.00,VWS V15.00,2013-10-08 19:45:00,
2013-10-08 14:47:00,71.1,46.9,29.89,WSW,244,9.0,14.0,42,0.00,,SKC,0.00,610.00,VWS V14.01,2013-10-08 19:47:00,
2013-10-08 14:50:00,71.3,47.7,29.90,SSW,197,16.0,16.0,43,0.00,,OVC,0.00,613.00,VWS V15.00,2013-10-08 19:50:00,
2013-10-08 14:52:00,71.3,46.4,29.89,SSW,198,5.0,16.0,41,0.00,,SKC,0.00,612.00,VWS V14.01,2013-10-08 19:52:00,
2013-10-08 14:55:00,71.3,46.4,29.89,WSW,240,13.0,21.0,41,0.00,,OVC,0.00,601.00,VWS V15.00,2013-10-08 19:55:00,
2013-10-08 14:57:00,71.3,46.4,29.89,SW,218,14.0,20.0,41,0.00,,SKC,0.00,598.00,VWS V14.01,2013-10-08 19:57:00,
2013-10-08 15:00:00,71.1,47.5,29.89,SSW,195,6.0,20.0,43,0.00,,OVC,0.00,578.00,VWS V15.00,2013-10-08 20:00:00,
2013-10-08 15:02:00,71.0,46.8,29.89,SW,219,11.0,16.0,42,0.00,,SKC,0.00,550.00,VWS V14.01,2013-10-08 20:02:00,
2013-10-08 15:05:00,71.0,46.8,29.89,WSW,240,8.0,18.0,42,0.00,,OVC,0.00,497.00,VWS V15.00,2013-10-08 20:05:00,
2013-10-08 15:07:00,71.0,46.1,29.89,SW,227,11.0,16.0,41,0.00,,SKC,0.00,564.00,VWS V14.01,2013-10-08 20:07:00,
2013-10-08 15:10:00,71.0,46.1,29.89,SW,219,8.0,18.0,41,0.00,,OVC,0.00,564.00,VWS V15.00,2013-10-08 20:10:00,
2013-10-08 15:12:00,71.1,46.2,29.89,SSW,206,11.0,20.0,41,0.00,,SKC,0.00,529.00,VWS V14.01,2013-10-08 20:12:00,
2013-10-08 15:15:00,71.1,47.5,29.89,WSW,253,14.0,20.0,43,0.00,,OVC,0.00,559.00,VWS V15.00,2013-10-08 20:15:00,
2013-10-08 15:17:00,71.1,45.6,29.89,South,173,6.0,14.0,40,0.00,,SKC,0.00,520.00,VWS V14.01,2013-10-08 20:17:00,
2013-10-08 15:20:00,71.3,46.4,29.89,WSW,246,5.0,15.0,41,0.00,,OVC,0.00,531.00,VWS V15.00,2013-10-08 20:20:00,
2013-10-08 15:22:00,71.3,47.7,29.88,West,263,6.0,9.0,43,0.00,,SKC,0.00,545.00,VWS V14.01,2013-10-08 20:22:00,
2013-10-08 15:25:00,71.4,46.5,29.88,SW,224,20.0,20.0,41,0.00,,OVC,0.00,533.00,VWS V15.00,2013-10-08 20:25:00,
2013-10-08 15:27:00,71.4,46.5,29.89,SSW,209,9.0,20.0,41,0.00,,SKC,0.00,534.00,VWS V14.01,2013-10-08 20:27:00,
2013-10-08 15:30:00,71.4,47.1,29.88,WSW,244,9.0,20.0,42,0.00,,OVC,0.00,469.00,VWS V15.00,2013-10-08 20:30:00,
2013-10-08 15:32:00,71.4,47.1,29.88,SSW,211,12.0,16.0,42,0.00,,SKC,0.00,404.00,VWS V14.01,2013-10-08 20:32:00,
2013-10-08 15:35:00,71.4,45.8,29.88,WSW,254,9.0,16.0,40,0.00,,OVC,0.00,494.00,VWS V15.00,2013-10-08 20:35:00,
2013-10-08 15:37:00,71.3,45.8,29.89,SW,227,14.0,19.0,40,0.00,,SKC,0.00,494.00,VWS V14.01,2013-10-08 20:37:00,
2013-10-08 15:40:00,71.2,47.6,29.88,SW,222,7.0,22.0,43,0.00,,OVC,0.00,499.00,VWS V15.00,2013-10-08 20:40:00,
2013-10-08 15:42:00,71.1,45.6,29.88,SW,228,13.0,18.0,40,0.00,,SKC,0.00,510.00,VWS V14.01,2013-10-08 20:42:00,
2013-10-08 15:45:00,71.2,45.7,29.89,SW,235,7.0,21.0,40,0.00,,OVC,0.00,487.00,VWS V15.00,2013-10-08 20:45:00,
2013-10-08 15:47:00,71.2,46.3,29.88,SSE,161,7.0,13.0,41,0.00,,SKC,0.00,404.00,VWS V14.01,2013-10-08 20:47:00,
2013-10-08 15:50:00,71.2,46.3,29.88,WSW,238,10.0,18.0,41,0.00,,OVC,0.00,441.00,VWS V15.00,2013-10-08 20:50:00,
2013-10-08 15:52:00,71.2,45.7,29.88,SSW,206,10.0,16.0,40,0.00,,SKC,0.00,364.00,VWS V14.01,2013-10-08 20:52:00,
2013-10-08 15:55:00,71.2,46.3,29.88,SSW,198,3.0,16.0,41,0.00,,OVC,0.00,244.00,VWS V15.00,2013-10-08 20:55:00,
2013-10-08 15:57:00,71.1,46.2,29.89,West,281,11.0,17.0,41,0.00,,SKC,0.00,185.00,VWS V14.01,2013-10-08 20:57:00,
2013-10-08 16:00:00,70.9,46.0,29.89,WSW,237,13.0,18.0,41,0.00,,OVC,0.00,279.00,VWS V15.00,2013-10-08 21:00:00,
2013-10-08 16:02:00,70.8,46.6,29.89,South,182,5.0,14.0,42,0.00,,SKC,0.00,301.00,VWS V14.01,2013-10-08 21:02:00,
2013-10-08 16:05:00,70.7,46.5,29.89,SW,227,6.0,14.0,42,0.00,,OVC,0.00,468.00,VWS V15.00,2013-10-08 21:05:00,
2013-10-08 16:07:00,70.7,46.5,29.89,WSW,242,5.0,7.0,42,0.00,,SKC,0.00,425.00,VWS V14.01,2013-10-08 21:07:00,
2013-10-08 16:10:00,70.8,47.2,29.89,South,171,2.0,20.0,43,0.00,,OVC,0.00,434.00,VWS V15.00,2013-10-08 21:10:00,
2013-10-08 16:12:00,70.9,46.7,29.89,South,184,10.0,21.0,42,0.00,,SKC,0.00,434.00,VWS V14.01,2013-10-08 21:12:00,
2013-10-08 16:15:00,71.3,46.4,29.89,SSE,152,10.0,21.0,41,0.00,,OVC,0.00,473.00,VWS V15.00,2013-10-08 21:15:00,
2013-10-08 16:17:00,71.3,45.8,29.89,WSW,239,9.0,14.0,40,0.00,,SKC,0.00,469.00,VWS V14.01,2013-10-08 21:17:00,
2013-10-08 16:20:00,71.2,46.3,29.89,SW,217,10.0,16.0,41,0.00,,OVC,0.00,410.00,VWS V15.00,2013-10-08 21:20:00,
2013-10-08 16:22:00,71.2,46.3,29.89,South,186,14.0,19.0,41,0.00,,SKC,0.00,434.00,VWS V14.01,2013-10-08 21:22:00,
2013-10-08 16:25:00,71.1,46.9,29.89,SW,220,5.0,19.0,42,0.00,,OVC,0.00,241.00,VWS V15.00,2013-10-08 21:25:00,
2013-10-08 16:27:00,71.0,46.8,29.89,SW,229,6.0,11.0,42,0.00,,SKC,0.00,311.00,VWS V14.01,2013-10-08 21:27:00,
2013-10-08 16:30:00,70.7,45.9,29.89,SW,235,8.0,12.0,41,0.00,,OVC,0.00,338.00,VWS V15.00,2013-10-08 21:30:00,
2013-10-08 16:32:00,70.6,45.8,29.89,SW,227,4.0,10.0,41,0.00,,SKC,0.00,396.00,VWS V14.01,2013-10-08 21:32:00,
2013-10-08 16:35:00,70.3,48.6,29.89,WSW,246,18.0,21.0,46,0.00,,OVC,0.00,232.00,VWS V15.00,2013-10-08 21:35:00,
2013-10-08 16:37:00,70.2,45.4,29.89,WSW,242,9.0,18.0,41,0.00,,SKC,0.00,357.00,VWS V14.01,2013-10-08 21:37:00,
2013-10-08 16:40:00,70.2,45.4,29.89,SSW,202,6.0,21.0,41,0.00,,OVC,0.00,279.00,VWS V15.00,2013-10-08 21:40:00,
2013-10-08 16:42:00,70.2,45.4,29.89,WSW,246,9.0,15.0,41,0.00,,SKC,0.00,345.00,VWS V14.01,2013-10-08 21:42:00,
2013-10-08 16:45:00,69.8,46.3,29.89,SW,217,8.0,16.0,43,0.00,,OVC,0.00,160.00,VWS V15.00,2013-10-08 21:45:00,
2013-10-08 16:48:00,69.7,46.8,29.89,West,267,13.0,13.0,44,0.00,,SKC,0.00,248.00,VWS V14.01,2013-10-08 21:48:00,
2013-10-08 16:50:00,69.6,45.5,29.89,SSW,199,8.0,16.0,42,0.00,,OVC,0.00,132.00,VWS V15.00,2013-10-08 21:50:00,
2013-10-08 16:53:00,69.5,46.0,29.89,SW,223,6.0,9.0,43,0.00,,SKC,0.00,114.00,VWS V14.01,2013-10-08 21:53:00,
2013-10-08 16:55:00,69.2,46.4,29.89,WSW,245,7.0,14.0,44,0.00,,OVC,0.00,125.00,VWS V15.00,2013-10-08 21:55:00,
2013-10-08 16:58:00,69.2,45.8,29.89,SW,226,11.0,11.0,43,0.00,,SKC,0.00,172.00,VWS V14.01,2013-10-08 21:58:00,
2013-10-08 17:00:00,69.3,47.1,29.88,SSW,200,6.0,13.0,45,0.00,,OVC,0.00,223.00,VWS V15.00,2013-10-08 22:00:00,
2013-10-08 17:03:00,69.4,46.0,29.89,SSE,168,16.0,17.0,43,0.00,,SKC,0.00,195.00,VWS V14.01,2013-10-08 22:03:00,
2013-10-08 17:05:00,69.3,47.1,29.89,SW,223,3.0,17.0,45,0.00,,OVC,0.00,172.00,VWS V15.00,2013-10-08 22:05:00,
2013-10-08 17:08:00,69.1,46.9,29.89,South,177,9.0,9.0,45,0.00,,SKC,0.00,186.00,VWS V14.01,2013-10-08 22:08:00,
2013-10-08 17:10:00,69.0,46.8,29.89,SSE,166,12.0,13.0,45,0.00,,OVC,0.00,190.00,VWS V15.00,2013-10-08 22:10:00,
2013-10-08 17:13:00,69.0,46.2,29.89,NE,36,4.0,12.0,44,0.00,,SKC,0.00,93.00,VWS V14.01,2013-10-08 22:13:00,
2013-10-08 17:15:00,68.6,47.6,29.89,South,188,1.0,12.0,47,0.00,,OVC,0.00,167.00,VWS V15.00,2013-10-08 22:15:00,
2013-10-08 17:18:00,68.4,46.8,29.89,SW,234,7.0,14.0,46,0.00,,SKC,0.00,100.00,VWS V14.01,2013-10-08 22:18:00,
2013-10-08 17:20:00,68.2,47.2,29.89,SW,217,2.0,15.0,47,0.00,,OVC,0.00,81.00,VWS V15.00,2013-10-08 22:20:00,
2013-10-08 17:23:00,68.0,46.5,29.89,SW,225,7.0,13.0,46,0.00,,SKC,0.00,70.00,VWS V14.01,2013-10-08 22:23:00,
2013-10-08 17:25:00,67.8,46.9,29.89,WSW,250,5.0,13.0,47,0.00,,OVC,0.00,62.00,VWS V15.00,2013-10-08 22:25:00,
2013-10-08 17:28:00,67.7,46.8,29.89,WSW,238,9.0,13.0,47,0.00,,SKC,0.00,60.00,VWS V14.01,2013-10-08 22:28:00,
2013-10-08 17:30:00,67.6,47.2,29.89,SSW,206,7.0,13.0,48,0.00,,OVC,0.00,65.00,VWS V15.00,2013-10-08 22:30:00,
2013-10-08 17:33:00,67.5,47.1,29.89,SW,221,6.0,7.0,48,0.00,,SKC,0.00,70.00,VWS V14.01,2013-10-08 22:33:00,
2013-10-08 17:35:00,67.3,47.5,29.89,SW,225,4.0,11.0,49,0.00,,OVC,0.00,120.00,VWS V15.00,2013-10-08 22:35:00,
2013-10-08 17:38:00,67.3,47.5,29.89,SSW,201,3.0,6.0,49,0.00,,SKC,0.00,120.00,VWS V14.01,2013-10-08 22:38:00,
2013-10-08 17:40:00,67.2,48.0,29.88,South,186,2.0,7.0,50,0.00,,OVC,0.00,79.00,VWS V15.00,2013-10-08 22:40:00,
2013-10-08 17:43:00,67.2,47.4,29.88,SSW,206,1.0,8.0,49,0.00,,SKC,0.00,62.00,VWS V14.01,2013-10-08 22:43:00,
2013-10-08 17:45:00,67.0,47.8,29.89,South,177,10.0,17.0,50,0.00,,OVC,0.00,46.00,VWS V15.00,2013-10-08 22:45:00,
2013-10-08 17:48:00,66.8,47.6,29.88,South,180,5.0,13.0,50,0.00,,SKC,0.00,42.00,VWS V14.01,2013-10-08 22:48:00,
2013-10-08 17:50:00,66.7,47.5,29.88,SSE,157,6.0,14.0,50,0.00,,OVC,0.00,39.00,VWS V15.00,2013-10-08 22:50:00,
2013-10-08 17:53:00,66.5,47.3,29.88,SW,227,2.0,11.0,50,0.00,,SKC,0.00,35.00,VWS V14.01,2013-10-08 22:53:00,
2013-10-08 17:55:00,66.5,47.8,29.88,SW,235,3.0,12.0,51,0.00,,OVC,0.00,32.00,VWS V15.00,2013-10-08 22:55:00,
2013-10-08 17:58:00,66.5,48.3,29.88,SW,225,1.0,8.0,52,0.00,,SKC,0.00,30.00,VWS V14.01,2013-10-08 22:58:00,
2013-10-08 18:00:00,66.5,47.3,29.89,South,189,5.0,8.0,50,0.00,,OVC,0.00,28.00,VWS V15.00,2013-10-08 23:00:00,
2013-10-08 18:03:00,66.5,47.3,29.89,WSW,251,5.0,12.0,50,0.00,,SKC,0.00,28.00,VWS V14.01,2013-10-08 23:03:00,
2013-10-08 18:05:00,66.5,47.3,29.89,SSE,164,5.0,12.0,50,0.00,,OVC,0.00,28.00,VWS V15.00,2013-10-08 23:05:00,
2013-10-08 18:08:00,66.4,47.7,29.89,West,266,5.0,7.0,51,0.00,,SKC,0.00,26.00,VWS V14.01,2013-10-08 23:08:00,
2013-10-08 18:10:00,66.3,48.2,29.89,South,180,6.0,16.0,52,0.00,,OVC,0.00,23.00,VWS V15.00,2013-10-08 23:10:00,
2013-10-08 18:13:00,66.3,47.1,29.89,SSW,200,7.0,10.0,50,0.00,,SKC,0.00,21.00,VWS V14.01,2013-10-08 23:13:00,
2013-10-08 18:15:00,66.1,47.5,29.89,SW,232,3.0,10.0,51,0.00,,OVC,0.00,18.00,VWS V15.00,2013-10-08 23:15:00,
2013-10-08 18:18:00,66.1,47.5,29.89,SSE,153,2.0,9.0,51,0.00,,SKC,0.00,16.00,VWS V14.01,2013-10-08 23:18:00,
2013-10-08 18:20:00,66.1,47.5,29.89,SW,227,8.0,9.0,51,0.00,,OVC,0.00,12.00,VWS V15.00,2013-10-08 23:20:00,
2013-10-08 18:23:00,66.0,47.4,29.89,SW,215,5.0,12.0,51,0.00,,SKC,0.00,11.00,VWS V14.01,2013-10-08 23:23:00,
2013-10-08 18:25:00,65.8,48.7,29.89,SW,223,5.0,12.0,54,0.00,,OVC,0.00,5.00,VWS V15.00,2013-10-08 23:25:00,
2013-10-08 18:28:00,65.7,47.6,29.89,SSE,163,4.0,10.0,52,0.00,,SKC,0.00,0.00,VWS V14.01,2013-10-08 23:28:00,
2013-10-08 18:30:00,65.6,47.5,29.89,SW,222,7.0,13.0,52,0.00,,OVC,0.00,0.00,VWS V15.00,2013-10-08 23:30:00,
2013-10-08 18:33:00,65.6,48.5,29.89,SW,225,5.0,10.0,54,0.00,,SKC,0.00,0.00,VWS V14.01,2013-10-08 23:33:00,
2013-10-08 18:35:00,65.4,48.3,29.89,SSE,164,3.0,10.0,54,0.00,,OVC,0.00,0.00,VWS V15.00,2013-10-08 23:35:00,
2013-10-08 18:38:00,65.3,47.8,29.89,SSE,167,6.0,11.0,53,0.00,,SKC,0.00,0.00,VWS V14.01,2013-10-08 23:38:00,
2013-10-08 18:40:00,65.3,47.8,29.89,SSE,161,10.0,14.0,53,0.00,,OVC,0.00,0.00,VWS V15.00,2013-10-08 23:40:00,
2013-10-08 18:44:00,65.3,47.8,29.89,WSW,239,8.0,12.0,53,0.00,,SKC,0.00,0.00,VWS V14.01,2013-10-08 23:44:00,
2013-10-08 18:45:00,65.2,47.7,29.89,SE,144,11.0,12.0,53,0.00,,OVC,0.00,0.00,VWS V15.00,2013-10-08 23:45:00,
2013-10-08 18:49:00,65.2,48.2,29.89,WSW,246,5.0,11.0,54,0.00,,SKC,0.00,0.00,VWS V14.01,2013-10-08 23:49:00,
2013-10-08 18:50:00,65.2,48.2,29.89,SSW,209,5.0,11.0,54,0.00,,OVC,0.00,0.00,VWS V15.00,2013-10-08 23:50:00,
2013-10-08 18:54:00,65.1,47.6,29.89,South,180,3.0,10.0,53,0.00,,SKC,0.00,0.00,VWS V14.01,2013-10-08 23:54:00,
2013-10-08 18:55:00,65.1,48.1,29.89,South,178,5.0,12.0,54,0.00,,OVC,0.00,0.00,VWS V15.00,2013-10-08 23:55:00,
2013-10-08 18:59:00,65.2,48.2,29.89,SW,227,7.0,9.0,54,0.00,,SKC,0.00,0.00,VWS V14.01,2013-10-08 23:59:00,
2013-10-08 19:00:00,65.1,47.6,29.89,SW,225,10.0,11.0,53,0.00,,OVC,0.00,0.00,VWS V15.00,2013-10-09 00:00:00,
2013-10-08 19:04:00,65.1,47.6,29.89,SSW,208,2.0,10.0,53,0.00,,SKC,0.00,0.00,VWS V14.01,2013-10-09 00:04:00,
2013-10-08 19:05:00,65.1,47.6,29.89,South,177,7.0,10.0,53,0.00,,OVC,0.00,0.00,VWS V15.00,2013-10-09 00:05:00,
2013-10-08 19:09:00,65.0,48.0,29.89,South,180,5.0,12.0,54,0.00,,SKC,0.00,0.00,VWS V14.01,2013-10-09 00:09:00,
2013-10-08 19:10:00,64.9,47.9,29.89,SW,236,4.0,12.0,54,0.00,,OVC,0.00,0.00,VWS V15.00,2013-10-09 00:10:00,
2013-10-08 19:14:00,64.9,48.4,29.90,WSW,246,4.0,10.0,55,0.00,,SKC,0.00,0.00,VWS V14.01,2013-10-09 00:14:00,
2013-10-08 19:15:00,64.9,47.9,29.90,South,191,5.0,12.0,54,0.00,,OVC,0.00,0.00,VWS V15.00,2013-10-09 00:15:00,
2013-10-08 19:19:00,64.9,48.4,29.90,SW,215,8.0,8.0,55,0.00,,SKC,0.00,0.00,VWS V14.01,2013-10-09 00:19:00,
2013-10-08 19:20:00,65.0,48.0,29.90,WSW,242,5.0,11.0,54,0.00,,OVC,0.00,0.00,VWS V15.00,2013-10-09 00:20:00,
2013-10-08 19:24:00,64.8,47.8,29.90,SW,230,5.0,7.0,54,0.00,,SKC,0.00,0.00,VWS V14.01,2013-10-09 00:24:00,
2013-10-08 19:25:00,64.8,47.8,29.90,SSW,209,4.0,12.0,54,0.00,,OVC,0.00,0.00,VWS V15.00,2013-10-09 00:25:00,
2013-10-08 19:29:00,64.9,47.9,29.90,South,190,4.0,12.0,54,0.00,,SKC,0.00,0.00,VWS V14.01,2013-10-09 00:29:00,
2013-10-08 19:30:00,64.9,47.9,29.90,SW,230,1.0,12.0,54,0.00,,OVC,0.00,0.00,VWS V15.00,2013-10-09 00:30:00,
2013-10-08 19:34:00,64.7,48.2,29.90,SSW,194,3.0,11.0,55,0.00,,SKC,0.00,0.00,VWS V14.01,2013-10-09 00:34:00,
2013-10-08 19:35:00,64.5,48.0,29.90,WSW,239,6.0,11.0,55,0.00,,OVC,0.00,0.00,VWS V15.00,2013-10-09 00:35:00,
2013-10-08 19:39:00,64.5,48.0,29.90,SW,231,1.0,10.0,55,0.00,,SKC,0.00,0.00,VWS V14.01,2013-10-09 00:39:00,
2013-10-08 19:40:00,64.5,48.0,29.90,SSE,153,6.0,10.0,55,0.00,,OVC,0.00,0.00,VWS V15.00,2013-10-09 00:40:00,
2013-10-08 19:44:00,64.4,47.4,29.90,South,189,1.0,11.0,54,0.00,,SKC,0.00,0.00,VWS V14.01,2013-10-09 00:44:00,
2013-10-08 19:45:00,64.5,47.5,29.90,SW,220,8.0,12.0,54,0.00,,OVC,0.00,0.00,VWS V15.00,2013-10-09 00:45:00,
2013-10-08 19:49:00,64.5,48.0,29.90,SSE,159,6.0,8.0,55,0.00,,SKC,0.00,0.00,VWS V14.01,2013-10-09 00:49:00,
2013-10-08 19:50:00,64.4,47.9,29.90,WSW,242,2.0,8.0,55,0.00,,OVC,0.00,0.00,VWS V15.00,2013-10-09 00:50:00,
2013-10-08 19:54:00,64.3,47.8,29.90,SW,221,3.0,9.0,55,0.00,,SKC,0.00,0.00,VWS V14.01,2013-10-09 00:54:00,
2013-10-08 19:55:00,64.4,47.4,29.90,SW,215,3.0,11.0,54,0.00,,OVC,0.00,0.00,VWS V15.00,2013-10-09 00:55:00,
2013-10-08 19:59:00,64.4,47.9,29.90,SSW,212,2.0,6.0,55,0.00,,SKC,0.00,0.00,VWS V14.01,2013-10-09 00:59:00,
2013-10-08 20:00:00,64.4,47.4,29.90,SSW,193,4.0,11.0,54,0.00,,OVC,0.00,0.00,VWS V15.00,2013-10-09 01:00:00,
2013-10-08 20:04:00,64.3,47.8,29.90,WSW,245,2.0,10.0,55,0.00,,SKC,0.00,0.00,VWS V14.01,2013-10-09 01:04:00,
2013-10-08 20:05:00,64.4,47.9,29.90,SW,228,4.0,10.0,55,0.00,,OVC,0.00,0.00,VWS V15.00,2013-10-09 01:05:00,
2013-10-08 20:09:00,64.4,47.4,29.90,South,175,4.0,12.0,54,0.00,,SKC,0.00,0.00,VWS V14.01,2013-10-09 01:09:00,
2013-10-08 20:10:00,64.2,47.7,29.90,SSW,212,2.0,12.0,55,0.00,,OVC,0.00,0.00,VWS V15.00,2013-10-09 01:10:00,
2013-10-08 20:14:00,64.1,48.1,29.90,South,191,3.0,9.0,56,0.00,,SKC,0.00,0.00,VWS V14.01,2013-10-09 01:14:00,
2013-10-08 20:15:00,64.1,47.6,29.90,South,171,10.0,12.0,55,0.00,,OVC,0.00,0.00,VWS V15.00,2013-10-09 01:15:00,
2013-10-08 20:19:00,64.1,47.6,29.90,SSW,211,2.0,13.0,55,0.00,,SKC,0.00,0.00,VWS V14.01,2013-10-09 01:19:00,
2013-10-08 20:20:00,64.1,47.6,29.90,WSW,243,6.0,13.0,55,0.00,,OVC,0.00,0.00,VWS V15.00,2013-10-09 01:20:00,
2013-10-08 20:24:00,64.3,47.8,29.90,SSE,161,6.0,15.0,55,0.00,,SKC,0.00,0.00,VWS V14.01,2013-10-09 01:24:00,
2013-10-08 20:25:00,64.3,47.8,29.90,SW,234,6.0,15.0,55,0.00,,OVC,0.00,0.00,VWS V15.00,2013-10-09 01:25:00,
2013-10-08 20:29:00,64.4,47.9,29.90,SSW,206,9.0,11.0,55,0.00,,SKC,0.00,0.00,VWS V14.01,2013-10-09 01:29:00,
2013-10-08 20:30:00,64.4,47.4,29.90,SSW,200,8.0,11.0,54,0.00,,OVC,0.00,0.00,VWS V15.00,2013-10-09 01:30:00,
2013-10-08 20:34:00,64.3,47.8,29.90,SSW,194,5.0,13.0,55,0.00,,SKC,0.00,0.00,VWS V14.01,2013-10-09 01:34:00,
2013-10-08 20:35:00,64.3,47.3,29.90,WSW,240,5.0,13.0,54,0.00,,OVC,0.00,0.00,VWS V15.00,2013-10-09 01:35:00,
2013-10-08 20:39:00,64.3,48.3,29.90,SW,223,12.0,12.0,56,0.00,,SKC,0.00,0.00,VWS V14.01,2013-10-09 01:39:00,
2013-10-08 20:40:00,64.3,48.3,29.90,SSE,167,1.0,12.0,56,0.00,,OVC,0.00,0.00,VWS V15.00,2013-10-09 01:40:00,
2013-10-08 20:44:00,64.2,47.2,29.90,SSW,192,4.0,12.0,54,0.00,,SKC,0.00,0.00,VWS V14.01,2013-10-09 01:44:00,
2013-10-08 20:49:00,64.4,47.9,29.90,SW,236,3.0,9.0,55,0.00,,SKC,0.00,0.00,VWS V14.01,2013-10-09 01:49:00,
2013-10-08 20:50:00,64.4,47.9,29.90,West,275,3.0,9.0,55,0.00,,OVC,0.00,0.00,VWS V15.00,2013-10-09 01:50:00,
2013-10-08 20:54:00,64.4,47.9,29.90,SSW,205,7.0,11.0,55,0.00,,SKC,0.00,0.00,VWS V14.01,2013-10-09 01:54:00,
2013-10-08 20:55:00,64.3,47.8,29.90,West,261,1.0,11.0,55,0.00,,OVC,0.00,0.00,VWS V15.00,2013-10-09 01:55:00,
2013-10-08 20:59:00,64.4,47.9,29.90,SW,234,7.0,8.0,55,0.00,,SKC,0.00,0.00,VWS V14.01,2013-10-09 01:59:00,
2013-10-08 21:00:00,64.5,48.5,29.90,SW,214,5.0,9.0,56,0.00,,OVC,0.00,0.00,VWS V15.00,2013-10-09 02:00:00,
2013-10-08 21:05:00,64.6,47.6,29.90,South,184,4.0,13.0,54,0.00,,SKC,0.00,0.00,VWS V14.01,2013-10-09 02:05:00,
2013-10-08 21:10:00,64.6,48.1,29.90,SW,234,4.0,15.0,55,0.00,,SKC,0.00,0.00,VWS V14.01,2013-10-09 02:10:00,
2013-10-08 21:15:00,64.7,47.7,29.90,SSW,210,4.0,13.0,54,0.00,,SKC,0.00,0.00,VWS V14.01,2013-10-09 02:15:00,
2013-10-08 21:20:00,64.6,47.6,29.90,WSW,246,7.0,11.0,54,0.00,,SKC,0.00,0.00,VWS V14.01,2013-10-09 02:20:00,
2013-10-08 21:25:00,64.7,47.7,29.91,South,176,0.0,9.0,54,0.00,,SKC,0.00,0.00,VWS V14.01,2013-10-09 02:25:00,
2013-10-08 21:30:00,64.6,48.1,29.90,SSW,211,6.0,9.0,55,0.00,,SKC,0.00,0.00,VWS V14.01,2013-10-09 02:30:00,
2013-10-08 21:35:00,64.7,47.2,29.91,SSW,201,7.0,14.0,53,0.00,,SKC,0.00,0.00,VWS V14.01,2013-10-09 02:35:00,
2013-10-08 21:40:00,64.7,47.7,29.91,SW,225,7.0,12.0,54,0.00,,SKC,0.00,0.00,VWS V14.01,2013-10-09 02:40:00,
2013-10-08 21:45:00,64.6,48.1,29.91,South,172,6.0,13.0,55,0.00,,SKC,0.00,0.00,VWS V14.01,2013-10-09 02:45:00,
2013-10-08 21:50:00,64.5,47.5,29.91,SW,232,6.0,13.0,54,0.00,,SKC,0.00,0.00,VWS V14.01,2013-10-09 02:50:00,
2013-10-08 21:55:00,64.5,48.0,29.91,SW,232,5.0,11.0,55,0.00,,SKC,0.00,0.00,VWS V14.01,2013-10-09 02:55:00,
2013-10-08 22:00:00,64.4,47.4,29.92,WSW,248,6.0,12.0,54,0.00,,SKC,0.00,0.00,VWS V14.01,2013-10-09 03:00:00,
2013-10-08 22:05:00,64.3,47.8,29.92,SSW,200,5.0,11.0,55,0.00,,SKC,0.00,0.00,VWS V14.01,2013-10-09 03:05:00,
2013-10-08 22:10:00,64.3,47.3,29.92,SW,236,10.0,12.0,54,0.00,,SKC,0.00,0.00,VWS V14.01,2013-10-09 03:10:00,
2013-10-08 22:15:00,64.3,47.3,29.92,West,259,5.0,12.0,54,0.00,,SKC,0.00,0.00,VWS V14.01,2013-10-09 03:15:00,
2013-10-08 22:20:00,64.1,47.6,29.93,SW,229,7.0,15.0,55,0.00,,SKC,0.00,0.00,VWS V14.01,2013-10-09 03:20:00,
2013-10-08 22:25:00,64.1,47.1,29.93,WSW,238,10.0,13.0,54,0.00,,SKC,0.00,0.00,VWS V14.01,2013-10-09 03:25:00,
2013-10-08 22:30:00,64.0,47.0,29.93,WSW,239,8.0,9.0,54,0.00,,SKC,0.00,0.00,VWS V14.01,2013-10-09 03:30:00,
2013-10-08 22:35:00,63.8,47.3,29.93,SSW,213,4.0,10.0,55,0.00,,SKC,0.00,0.00,VWS V14.01,2013-10-09 03:35:00,
2013-10-08 22:40:00,63.8,47.8,29.93,SSW,201,2.0,11.0,56,0.00,,SKC,0.00,0.00,VWS V14.01,2013-10-09 03:40:00,
2013-10-08 22:45:00,63.6,47.2,29.93,WSW,238,7.0,12.0,55,0.00,,SKC,0.00,0.00,VWS V14.01,2013-10-09 03:45:00,
2013-10-08 22:50:00,63.7,47.2,29.93,SSW,213,4.0,14.0,55,0.00,,SKC,0.00,0.00,VWS V14.01,2013-10-09 03:50:00,
2013-10-08 22:55:00,63.7,47.2,29.93,SW,230,7.0,11.0,55,0.00,,SKC,0.00,0.00,VWS V14.01,2013-10-09 03:55:00,
2013-10-08 23:00:00,63.5,47.5,29.93,SW,229,12.0,17.0,56,0.00,,OVC,0.00,0.00,VWS V15.00,2013-10-09 04:00:00,
2013-10-08 23:01:00,63.5,47.5,29.93,SW,234,11.0,15.0,56,0.00,,SKC,0.00,0.00,VWS V14.01,2013-10-09 04:01:00,
2013-10-08 23:02:00,63.5,47.5,29.93,SW,232,9.0,12.0,56,0.00,,SKC,0.00,0.00,VWS V14.01,2013-10-09 04:02:00,
2013-10-08 23:03:00,63.5,47.5,29.93,West,265,8.0,12.0,56,0.00,,SKC,0.00,0.00,VWS V14.01,2013-10-09 04:03:00,
2013-10-08 23:05:00,63.4,47.9,29.93,SW,234,8.0,12.0,57,0.00,,SKC,0.00,0.00,VWS V14.01,2013-10-09 04:05:00,
2013-10-08 23:06:00,63.4,47.5,29.94,WSW,257,5.0,12.0,56,0.00,,SKC,0.00,0.00,VWS V14.01,2013-10-09 04:06:00,
2013-10-08 23:10:00,63.4,47.5,29.93,SSW,205,9.0,16.0,56,0.00,,OVC,0.00,0.00,VWS V15.00,2013-10-09 04:10:00,
2013-10-08 23:11:00,63.4,47.5,29.93,SSW,205,9.0,16.0,56,0.00,,SKC,0.00,0.00,VWS V14.01,2013-10-09 04:11:00,
2013-10-08 23:15:00,63.2,47.3,29.94,SW,235,4.0,11.0,56,0.00,,OVC,0.00,0.00,VWS V15.00,2013-10-09 04:15:00,
2013-10-08 23:16:00,63.2,47.3,29.94,SW,235,4.0,11.0,56,0.00,,SKC,0.00,0.00,VWS V14.01,2013-10-09 04:16:00,
2013-10-08 23:20:00,63.0,47.1,29.93,SSW,212,16.0,16.0,56,0.00,,OVC,0.00,0.00,VWS V15.00,2013-10-09 04:20:00,
2013-10-08 23:21:00,63.0,47.1,29.93,SSW,212,16.0,16.0,56,0.00,,SKC,0.00,0.00,VWS V14.01,2013-10-09 04:21:00,
2013-10-08 23:25:00,62.8,46.9,29.94,SW,227,11.0,16.0,56,0.00,,OVC,0.00,0.00,VWS V15.00,2013-10-09 04:25:00,
2013-10-08 23:26:00,62.8,46.9,29.94,SW,227,11.0,16.0,56,0.00,,SKC,0.00,0.00,VWS V14.01,2013-10-09 04:26:00,
2013-10-08 23:30:00,62.7,47.3,29.94,SSW,193,11.0,13.0,57,0.00,,OVC,0.00,0.00,VWS V15.00,2013-10-09 04:30:00,
2013-10-08 23:31:00,62.7,47.3,29.94,SSW,193,11.0,13.0,57,0.00,,SKC,0.00,0.00,VWS V14.01,2013-10-09 04:31:00,
2013-10-08 23:35:00,62.6,47.2,29.94,SW,219,6.0,15.0,57,0.00,,OVC,0.00,0.00,VWS V15.00,2013-10-09 04:35:00,
2013-10-08 23:36:00,62.6,47.2,29.94,SW,219,6.0,15.0,57,0.00,,SKC,0.00,0.00,VWS V14.01,2013-10-09 04:36:00,
2013-10-08 23:40:00,62.4,47.0,29.94,WSW,241,9.0,13.0,57,0.00,,OVC,0.00,0.00,VWS V15.00,2013-10-09 04:40:00,
2013-10-08 23:41:00,62.4,47.0,29.94,WSW,239,8.0,9.0,57,0.00,,SKC,0.00,0.00,VWS V14.01,2013-10-09 04:41:00,
2013-10-08 23:45:00,62.2,47.7,29.94,SW,220,7.0,12.0,59,0.00,,OVC,0.00,0.00,VWS V15.00,2013-10-09 04:45:00,
2013-10-08 23:46:00,62.2,47.7,29.94,SSW,212,7.0,7.0,59,0.00,,SKC,0.00,0.00,VWS V14.01,2013-10-09 04:46:00,
2013-10-08 23:50:00,62.1,47.2,29.94,SW,236,9.0,12.0,58,0.00,,OVC,0.00,0.00,VWS V15.00,2013-10-09 04:50:00,
2013-10-08 23:51:00,62.0,47.1,29.94,SSW,213,7.0,9.0,58,0.00,,SKC,0.00,0.00,VWS V14.01,2013-10-09 04:51:00,
2013-10-08 23:55:00,62.0,47.1,29.94,SW,221,4.0,15.0,58,0.00,,OVC,0.00,0.00,VWS V15.00,2013-10-09 04:55:00,
2013-10-08 23:56:00,62.0,47.1,29.94,WSW,242,7.0,8.0,58,0.00,,SKC,0.00,0.00,VWS V14.01,2013-10-09 04:56:00,